createdAt,value
2022-08-09T00:02:03.410Z,7.20
2022-08-09T00:04:34.818Z,7.20
2022-08-09T00:07:07.767Z,7.20
2022-08-09T00:09:40.488Z,6.40
2022-08-09T00:12:22.398Z,7.60
2022-08-09T00:14:56.627Z,6.80
2022-08-09T00:18:05.908Z,7.50
2022-08-09T00:20:17.707Z,7.40
2022-08-09T00:22:47.713Z,7.60
2022-08-09T00:25:23.049Z,7.40
2022-08-09T00:27:55.331Z,7.00
2022-08-09T00:30:25.621Z,7.00
2022-08-09T00:32:55.468Z,7.20
2022-08-09T00:35:24.364Z,7.10
2022-08-09T00:37:53.896Z,7.30
2022-08-09T00:40:22.892Z,7.70
2022-08-09T00:44:10.260Z,7.40
2022-08-09T00:45:50.714Z,7.10
2022-08-09T00:48:23.535Z,6.90
2022-08-09T00:50:54.898Z,7.00
2022-08-09T00:53:24.564Z,7.90
2022-08-09T00:56:04.574Z,6.90
2022-08-09T00:58:36.229Z,7.50
2022-08-09T01:01:16.384Z,6.80
2022-08-09T01:04:08.183Z,7.90
2022-08-09T01:07:05.256Z,7.20
2022-08-09T01:09:46.895Z,7.30
2022-08-09T01:12:37.840Z,7.30
2022-08-09T01:15:17.779Z,6.80
2022-08-09T01:18:05.825Z,7.70
2022-08-09T01:20:52.150Z,7.60
2022-08-09T01:24:04.913Z,7.70
2022-08-09T01:27:01.342Z,7.30
2022-08-09T01:29:55.235Z,7.50
2022-08-09T01:32:36.022Z,6.90
2022-08-09T01:35:37.219Z,7.60
2022-08-09T01:38:15.528Z,7.70
2022-08-09T01:41:03.177Z,7.50
2022-08-09T01:43:51.309Z,7.90
2022-08-09T01:46:36.660Z,8.20
2022-08-09T01:49:14.836Z,7.70
2022-08-09T01:51:58.703Z,7.30
2022-08-09T01:54:46.153Z,7.90
2022-08-09T01:57:20.805Z,7.40
2022-08-09T02:00:00.182Z,7.80
2022-08-09T02:02:48.179Z,8.00
2022-08-09T02:05:21.604Z,7.40
2022-08-09T02:08:38.807Z,7.20
2022-08-09T02:11:16.854Z,7.80
2022-08-09T02:14:06.409Z,7.60
2022-08-09T02:16:53.277Z,7.90
2022-08-09T02:19:34.849Z,7.60
2022-08-09T02:22:45.696Z,7.50
2022-08-09T02:25:23.240Z,7.70
2022-08-09T02:28:04.114Z,8.40
2022-08-09T02:30:46.412Z,7.70
2022-08-09T02:33:22.960Z,7.80
2022-08-09T02:36:03.467Z,7.70
2022-08-09T02:38:47.474Z,8.00
2022-08-09T02:41:27.727Z,7.60
2022-08-09T02:44:06.612Z,10.40
2022-08-09T02:46:44.669Z,8.30
2022-08-09T02:49:18.012Z,7.70
2022-08-09T02:51:57.913Z,8.30
2022-08-09T02:54:29.624Z,8.30
2022-08-09T02:57:13.860Z,8.40
2022-08-09T03:00:21.357Z,8.10
2022-08-09T03:02:58.275Z,10.00
2022-08-09T03:05:34.579Z,8.90
2022-08-09T03:08:05.588Z,7.60
2022-08-09T03:10:36.781Z,8.10
2022-08-09T03:13:08.555Z,8.90
2022-08-09T03:16:06.309Z,8.30
2022-08-09T03:18:30.577Z,7.30
2022-08-09T03:21:03.255Z,8.10
2022-08-09T03:23:33.075Z,8.80
2022-08-09T03:26:03.659Z,9.00
2022-08-09T03:28:35.182Z,8.50
2022-08-09T03:31:10.456Z,8.20
2022-08-09T03:33:54.095Z,9.00
2022-08-09T03:36:27.535Z,9.50
2022-08-09T03:38:57.455Z,9.80
2022-08-09T03:41:29.909Z,8.60
2022-08-09T03:44:13.435Z,9.00
2022-08-09T03:46:44.913Z,9.50
2022-08-09T03:49:19.035Z,8.80
2022-08-09T03:54:38.446Z,7.40
2022-08-09T03:57:20.592Z,7.90
2022-08-09T03:59:55.977Z,7.80
2022-08-09T04:02:32.614Z,8.50
2022-08-09T04:05:06.353Z,8.40
2022-08-09T04:07:52.798Z,7.70
2022-08-09T04:10:28.946Z,8.70
2022-08-09T04:13:04.449Z,9.50
2022-08-09T04:16:18.380Z,9.70
2022-08-09T04:18:22.292Z,8.40
2022-08-09T04:20:54.391Z,8.50
2022-08-09T04:23:24.768Z,8.40
2022-08-09T04:25:55.904Z,8.90
2022-08-09T04:28:33.004Z,8.40
2022-08-09T04:31:09.412Z,8.30
2022-08-09T04:33:53.015Z,8.60
2022-08-09T04:36:28.944Z,8.70
2022-08-09T04:39:04.656Z,8.20
2022-08-09T04:41:33.955Z,8.20
2022-08-09T04:44:14.745Z,7.80
2022-08-09T04:46:58.194Z,8.00
2022-08-09T04:49:53.926Z,8.70
2022-08-09T04:52:27.749Z,8.10
2022-08-09T04:54:59.003Z,8.00
2022-08-09T04:57:58.579Z,8.10
2022-08-09T05:00:17.634Z,8.60
2022-08-09T05:02:48.668Z,8.60
2022-08-09T05:05:31.413Z,8.60
2022-08-09T05:08:01.144Z,8.00
2022-08-09T05:10:29.752Z,8.70
2022-08-09T05:12:59.772Z,8.40
2022-08-09T05:18:50.976Z,8.60
2022-08-09T05:21:01.590Z,8.50
2022-08-09T05:23:54.183Z,8.60
2022-08-09T05:26:26.522Z,8.90
2022-08-09T05:29:06.388Z,8.90
2022-08-09T05:31:44.400Z,8.60
2022-08-09T05:34:16.683Z,8.70
2022-08-09T05:36:46.838Z,9.50
2022-08-09T05:39:21.687Z,8.90
2022-08-09T05:42:01.646Z,9.30
2022-08-09T05:44:34.970Z,8.40
2022-08-09T05:47:05.885Z,8.70
2022-08-09T05:50:30.349Z,8.60
2022-08-09T05:52:26.645Z,8.60
2022-08-09T05:55:03.181Z,7.70
2022-08-09T05:57:51.057Z,8.70
2022-08-09T06:00:29.374Z,8.60
2022-08-09T06:03:00.744Z,9.10
2022-08-09T06:05:49.967Z,8.60
2022-08-09T06:08:24.893Z,8.80
2022-08-09T06:10:55.989Z,8.40
2022-08-09T06:13:25.744Z,8.60
2022-08-09T06:15:57.595Z,8.60
2022-08-09T06:18:28.962Z,8.90
2022-08-09T06:20:58.960Z,8.60
2022-08-09T06:23:58.236Z,8.80
2022-08-09T06:26:22.280Z,9.40
2022-08-09T06:29:00.565Z,9.20
2022-08-09T06:31:40.514Z,9.90
2022-08-09T06:34:26.371Z,9.00
2022-08-09T06:37:00.121Z,9.70
2022-08-09T06:39:48.610Z,9.10
2022-08-09T06:42:24.970Z,9.30
2022-08-09T06:45:04.622Z,9.60
2022-08-09T06:47:48.956Z,8.60
2022-08-09T06:50:31.062Z,8.60
2022-08-09T06:53:01.798Z,9.20
2022-08-09T06:55:33.332Z,8.10
2022-08-09T06:58:04.399Z,9.20
2022-08-09T07:00:51.173Z,9.10
2022-08-09T07:03:28.060Z,8.20
2022-08-09T07:06:04.866Z,7.90
2022-08-09T07:08:37.202Z,7.70
2022-08-09T07:11:12.744Z,8.60
2022-08-09T07:14:04.283Z,7.30
2022-08-09T07:16:41.447Z,8.80
2022-08-09T07:19:22.991Z,7.00
2022-08-09T07:21:56.957Z,8.20
2022-08-09T07:24:32.731Z,8.50
2022-08-09T07:27:26.264Z,8.90
2022-08-09T07:29:58.376Z,8.50
2022-08-09T07:32:32.157Z,8.50
2022-08-09T07:35:08.160Z,8.40
2022-08-09T07:37:44.634Z,8.90
2022-08-09T07:40:20.747Z,8.80
2022-08-09T07:43:00.307Z,8.60
2022-08-09T07:45:39.257Z,8.70
2022-08-09T07:48:28.315Z,8.50
2022-08-09T07:52:02.685Z,9.60
2022-08-09T07:54:05.798Z,8.70
2022-08-09T07:56:38.760Z,8.30
2022-08-09T07:59:25.569Z,8.90
2022-08-09T08:02:04.827Z,8.90
2022-08-09T08:04:34.897Z,8.80
2022-08-09T08:07:21.593Z,8.50
2022-08-09T08:09:55.231Z,8.20
2022-08-09T08:12:42.597Z,7.70
2022-08-09T08:15:17.601Z,9.00
2022-08-09T08:17:55.533Z,9.30
2022-08-09T08:20:33.087Z,8.60
2022-08-09T08:23:16.376Z,8.10
2022-08-09T08:25:50.200Z,9.20
2022-08-09T08:28:32.279Z,9.00
2022-08-09T08:31:13.915Z,8.70
2022-08-09T08:33:52.112Z,8.20
2022-08-09T08:36:28.799Z,7.80
2022-08-09T08:39:01.721Z,7.70
2022-08-09T08:41:50.750Z,7.90
2022-08-09T08:44:28.826Z,8.20
2022-08-09T08:47:05.176Z,8.20
2022-08-09T08:49:48.672Z,8.00
2022-08-09T08:52:57.431Z,7.50
2022-08-09T08:55:23.520Z,8.70
2022-08-09T08:57:58.562Z,7.80
2022-08-09T09:00:34.446Z,8.90
2022-08-09T09:03:11.159Z,8.20
2022-08-09T09:06:00.347Z,8.50
2022-08-09T09:08:41.070Z,8.30
2022-08-09T09:11:17.636Z,8.50
2022-08-09T09:13:55.384Z,8.00
2022-08-09T09:16:35.045Z,8.00
2022-08-09T09:19:40.914Z,8.00
2022-08-09T09:22:16.056Z,8.60
2022-08-09T09:24:47.484Z,8.00
2022-08-09T09:28:03.781Z,8.00
2022-08-09T09:33:13.838Z,8.40
2022-08-09T09:36:20.348Z,8.50
2022-08-09T09:38:58.574Z,8.20
2022-08-09T09:41:49.323Z,8.40
2022-08-09T09:44:33.893Z,8.50
2022-08-09T09:47:12.109Z,8.40
2022-08-09T09:50:07.337Z,8.30
2022-08-09T09:52:56.890Z,8.70
2022-08-09T09:55:31.356Z,7.10
2022-08-09T09:58:16.682Z,8.00
2022-08-09T10:00:53.788Z,7.70
2022-08-09T10:03:57.959Z,8.60
2022-08-09T10:06:42.620Z,8.00
2022-08-09T10:09:22.503Z,8.20
2022-08-09T10:12:14.390Z,7.80
2022-08-09T10:14:51.847Z,7.60
2022-08-09T10:17:39.580Z,7.80
2022-08-09T10:20:27.151Z,7.60
2022-08-09T10:23:16.914Z,8.00
2022-08-09T10:26:08.055Z,8.30
2022-08-09T10:28:41.673Z,8.20
2022-08-09T10:34:10.232Z,8.20
2022-08-09T10:36:57.626Z,8.30
2022-08-09T10:39:28.697Z,7.30
2022-08-09T10:42:06.200Z,7.70
2022-08-09T10:44:37.516Z,7.40
2022-08-09T10:48:16.935Z,7.80
2022-08-09T10:51:15.111Z,7.70
2022-08-09T10:54:12.365Z,7.80
2022-08-09T10:56:43.828Z,7.50
2022-08-09T10:59:31.894Z,7.10
2022-08-09T11:03:15.240Z,7.50
2022-08-09T11:05:36.736Z,8.80
2022-08-09T11:08:47.908Z,7.10
2022-08-09T11:11:21.678Z,7.60
2022-08-09T11:14:35.534Z,7.30
2022-08-09T11:17:19.437Z,6.80
2022-08-09T11:20:07.833Z,7.80
2022-08-09T11:22:56.677Z,7.30
2022-08-09T11:25:44.742Z,7.20
2022-08-09T11:28:56.432Z,6.90
2022-08-09T11:31:50.346Z,7.70
2022-08-09T11:34:43.271Z,7.80
2022-08-09T11:37:40.580Z,6.80
2022-08-09T11:40:35.601Z,7.50
2022-08-09T11:43:07.628Z,8.00
2022-08-09T11:45:43.801Z,6.90
2022-08-09T11:48:19.434Z,7.10
2022-08-09T11:53:59.979Z,7.30
2022-08-09T11:56:41.327Z,7.30
2022-08-09T11:59:30.457Z,7.40
2022-08-09T12:02:17.560Z,7.80
2022-08-09T12:04:57.969Z,7.90
2022-08-09T12:07:41.531Z,7.10
2022-08-09T12:10:14.305Z,7.60
2022-08-09T12:13:03.814Z,6.90
2022-08-09T12:15:52.645Z,8.10
2022-08-09T12:18:30.366Z,7.40
2022-08-09T12:21:26.441Z,7.00
2022-08-09T12:24:09.151Z,7.40
2022-08-09T12:29:15.550Z,7.00
2022-08-09T12:30:01.973Z,6.90
2022-08-09T12:32:44.211Z,7.30
2022-08-09T12:35:19.293Z,7.10
2022-08-09T12:37:51.971Z,7.40
2022-08-09T12:40:27.566Z,6.90
2022-08-09T12:42:56.626Z,7.40
2022-08-09T12:45:33.952Z,7.10
2022-08-09T12:48:27.893Z,7.20
2022-08-09T12:51:00.477Z,7.30
2022-08-09T12:53:41.064Z,7.30
2022-08-09T12:56:39.939Z,7.60
2022-08-09T12:59:16.917Z,7.40
2022-08-09T13:02:09.554Z,7.00
2022-08-09T13:04:40.322Z,7.10
2022-08-09T13:07:19.282Z,8.30
2022-08-09T13:10:01.693Z,8.70
2022-08-09T13:12:32.338Z,8.10
2022-08-09T13:15:12.099Z,8.10
2022-08-09T13:17:58.846Z,7.80
2022-08-09T13:20:37.411Z,8.10
2022-08-09T13:24:16.198Z,7.40
2022-08-09T13:25:56.260Z,7.70
2022-08-09T13:28:34.347Z,8.00
2022-08-09T13:32:17.842Z,7.20
2022-08-09T13:34:01.798Z,7.30
2022-08-09T13:36:41.841Z,7.10
2022-08-09T13:41:19.483Z,7.10
2022-08-09T13:42:10.985Z,6.60
2022-08-09T13:44:43.286Z,6.80
2022-08-09T13:47:30.983Z,6.70
2022-08-09T13:50:07.882Z,6.70
2022-08-09T13:52:48.224Z,6.70
2022-08-09T13:55:21.039Z,6.80
2022-08-09T13:57:56.000Z,6.70
2022-08-09T14:00:30.359Z,6.80
2022-08-09T14:03:04.535Z,7.10
2022-08-09T14:05:58.519Z,6.20
2022-08-09T14:11:01.253Z,6.30
2022-08-09T14:14:23.293Z,7.10
2022-08-09T14:16:28.206Z,6.90
2022-08-09T14:18:59.570Z,6.00
2022-08-09T14:21:29.260Z,7.20
2022-08-09T14:24:05.591Z,6.30
2022-08-09T14:26:39.474Z,6.90
2022-08-09T14:30:15.098Z,6.60
2022-08-09T14:32:13.124Z,6.30
2022-08-09T14:34:42.361Z,6.10
2022-08-09T14:37:11.569Z,5.80
2022-08-09T14:39:47.061Z,6.10
2022-08-09T14:42:40.629Z,6.30
2022-08-09T14:46:40.337Z,6.10
2022-08-09T14:48:02.505Z,5.80
2022-08-09T14:50:36.896Z,5.30
2022-08-09T14:53:13.975Z,5.50
2022-08-09T14:55:48.105Z,5.10
2022-08-09T14:58:19.958Z,5.40
2022-08-09T15:00:51.123Z,5.30
2022-08-09T15:03:21.228Z,5.60
2022-08-09T15:05:53.831Z,5.40
2022-08-09T15:08:30.325Z,5.10
2022-08-09T15:11:00.368Z,5.60
2022-08-09T15:13:48.104Z,4.90
2022-08-09T15:16:20.270Z,5.50
2022-08-09T15:18:49.707Z,5.70
2022-08-09T15:21:56.592Z,5.40
2022-08-09T15:24:12.921Z,6.20
2022-08-09T15:26:46.186Z,5.70
2022-08-09T15:31:01.058Z,5.80
2022-08-09T15:32:06.187Z,6.10
2022-08-09T15:34:56.298Z,5.60
2022-08-09T15:38:10.631Z,5.90
2022-08-09T15:40:32.359Z,6.10
2022-08-09T15:43:02.645Z,6.60
2022-08-09T15:45:52.018Z,6.70
2022-08-09T15:48:28.903Z,6.60
2022-08-09T15:51:30.206Z,6.60
2022-08-09T15:54:03.862Z,6.60
2022-08-09T15:56:38.585Z,7.00
2022-08-09T15:59:07.363Z,7.70
2022-08-09T16:01:36.531Z,6.40
2022-08-09T16:04:06.078Z,6.80
2022-08-09T16:06:44.731Z,7.00
2022-08-09T16:09:19.313Z,7.00
2022-08-09T16:12:01.731Z,7.20
2022-08-09T16:14:32.774Z,7.00
2022-08-09T16:17:01.665Z,6.70
2022-08-09T16:19:36.903Z,6.50
2022-08-09T16:22:18.077Z,6.30
2022-08-09T16:24:57.043Z,6.60
2022-08-09T16:27:29.969Z,5.80
2022-08-09T16:30:02.423Z,5.40
2022-08-09T16:32:54.068Z,5.40
2022-08-09T16:35:56.925Z,5.00
2022-08-09T16:38:12.865Z,5.40
2022-08-09T16:40:41.728Z,5.30
2022-08-09T16:43:11.073Z,5.20
2022-08-09T16:45:44.388Z,5.00
2022-08-09T16:48:38.746Z,4.80
2022-08-09T16:51:08.084Z,4.70
2022-08-09T16:53:47.233Z,4.40
2022-08-09T16:56:26.811Z,4.10
2022-08-09T16:59:06.564Z,3.90
2022-08-09T17:01:39.863Z,4.30
2022-08-09T17:04:25.529Z,4.00
2022-08-09T17:08:40.848Z,4.30
2022-08-09T17:09:52.253Z,4.30
2022-08-09T17:12:31.461Z,3.80
2022-08-09T17:15:00.664Z,3.60
2022-08-09T17:17:30.761Z,4.00
2022-08-09T17:20:32.325Z,4.20
2022-08-09T17:23:10.533Z,3.80
2022-08-09T17:25:52.879Z,3.50
2022-08-09T17:28:22.660Z,3.90
2022-08-09T17:30:52.386Z,3.70
2022-08-09T17:33:22.653Z,4.00
2022-08-09T17:35:52.312Z,3.80
2022-08-09T17:38:34.063Z,4.80
2022-08-09T17:41:08.305Z,4.50
2022-08-09T17:43:37.994Z,4.40
2022-08-09T17:46:08.917Z,4.10
2022-08-09T17:48:51.885Z,4.60
2022-08-09T17:51:22.703Z,3.60
2022-08-09T17:53:55.183Z,4.40
2022-08-09T17:56:29.147Z,4.40
2022-08-09T17:59:09.030Z,3.80
2022-08-09T18:02:03.538Z,3.80
2022-08-09T18:04:27.974Z,3.60
2022-08-09T18:06:56.716Z,3.80
2022-08-09T18:09:40.135Z,3.40
2022-08-09T18:12:19.474Z,3.40
2022-08-09T18:14:54.941Z,3.80
2022-08-09T18:18:03.570Z,3.50
2022-08-09T18:20:55.134Z,3.00
2022-08-09T18:23:07.449Z,3.20
2022-08-09T18:25:53.522Z,3.10
2022-08-09T18:30:39.645Z,3.10
2022-08-09T18:31:24.778Z,3.10
2022-08-09T18:33:54.098Z,2.90
2022-08-09T18:36:25.614Z,3.10
2022-08-09T18:39:02.197Z,3.10
2022-08-09T18:41:35.464Z,2.90
2022-08-09T18:44:12.379Z,3.80
2022-08-09T18:47:05.432Z,3.00
2022-08-09T18:49:43.240Z,3.20
2022-08-09T18:52:18.896Z,3.00
2022-08-09T18:54:56.761Z,3.00
2022-08-09T18:57:42.822Z,3.20
2022-08-09T19:00:16.400Z,3.10
2022-08-09T19:02:51.296Z,2.70
2022-08-09T19:05:41.414Z,2.60
2022-08-09T19:08:14.066Z,3.00
2022-08-09T19:10:48.211Z,3.00
2022-08-09T19:13:22.013Z,3.30
2022-08-09T19:15:55.721Z,2.90
2022-08-09T19:18:32.974Z,2.80
2022-08-09T19:21:09.579Z,3.20
2022-08-09T19:24:33.078Z,2.50
2022-08-09T19:26:34.823Z,2.70
2022-08-09T19:29:18.100Z,2.80
2022-08-09T19:31:51.629Z,2.40
2022-08-09T19:34:22.992Z,3.00
2022-08-09T19:36:55.719Z,2.60
2022-08-09T19:39:29.083Z,2.90
2022-08-09T19:42:19.352Z,2.80
2022-08-09T19:44:58.677Z,2.60
2022-08-09T19:47:27.372Z,2.50
2022-08-09T19:50:50.616Z,2.90
2022-08-09T19:53:21.889Z,2.80
2022-08-09T19:56:05.907Z,2.40
2022-08-09T19:58:35.879Z,2.60
2022-08-09T20:01:04.475Z,2.70
2022-08-09T20:04:10.034Z,2.20
2022-08-09T20:06:29.903Z,2.50
2022-08-09T20:09:00.416Z,2.20
2022-08-09T20:11:33.750Z,2.50
2022-08-09T20:14:15.429Z,2.30
2022-08-09T20:19:47.880Z,2.50
2022-08-09T20:22:14.205Z,2.50
2022-08-09T20:24:53.475Z,2.00
2022-08-09T20:27:23.542Z,2.40
2022-08-09T20:29:52.261Z,2.70
2022-08-09T20:32:33.881Z,2.20
2022-08-09T20:35:03.115Z,2.10
2022-08-09T20:38:20.382Z,2.30
2022-08-09T20:40:27.155Z,2.30
2022-08-09T20:46:00.216Z,2.40
2022-08-09T20:48:39.254Z,2.40
2022-08-09T20:51:07.920Z,2.00
2022-08-09T20:53:48.786Z,2.40
2022-08-09T20:56:25.930Z,2.20
2022-08-09T20:58:58.852Z,2.30
2022-08-09T21:01:34.012Z,2.20
2022-08-09T21:05:51.968Z,2.30
2022-08-09T21:07:11.328Z,2.30
2022-08-09T21:09:56.168Z,2.40
2022-08-09T21:15:23.399Z,2.40
2022-08-09T21:18:24.450Z,2.10
2022-08-09T21:20:56.727Z,2.10
2022-08-09T21:23:36.041Z,2.30
2022-08-09T21:26:15.602Z,2.10
2022-08-09T21:28:55.334Z,2.00
2022-08-09T21:31:49.347Z,2.00
2022-08-09T21:34:21.067Z,2.30
2022-08-09T21:36:58.031Z,1.90
2022-08-09T21:39:28.178Z,2.20
2022-08-09T21:42:11.988Z,2.10
2022-08-09T21:44:42.743Z,2.30
2022-08-09T21:47:18.065Z,2.00
2022-08-09T21:49:48.476Z,1.90
2022-08-09T21:52:20.864Z,2.20
2022-08-09T21:55:02.836Z,2.20
2022-08-09T21:57:38.894Z,2.20
2022-08-09T22:00:36.565Z,2.00
2022-08-09T22:03:19.179Z,2.20
2022-08-09T22:05:51.159Z,2.10
2022-08-09T22:08:23.016Z,2.10
2022-08-09T22:11:49.173Z,2.20
2022-08-09T22:13:44.893Z,2.10
2022-08-09T22:16:13.719Z,2.00
2022-08-09T22:18:54.484Z,1.80
2022-08-09T22:21:49.718Z,2.30
2022-08-09T22:24:21.013Z,1.90
2022-08-09T22:27:05.447Z,2.00
2022-08-09T22:29:46.239Z,2.30
2022-08-09T22:32:29.460Z,1.90
2022-08-09T22:35:06.140Z,2.10
2022-08-09T22:37:40.125Z,2.00
2022-08-09T22:40:20.104Z,2.00
2022-08-09T22:42:49.500Z,1.90
2022-08-09T22:48:16.874Z,2.10
2022-08-09T22:48:19.169Z,2.20
2022-08-09T22:50:55.717Z,2.10
2022-08-09T22:53:24.300Z,2.60
2022-08-09T22:56:30.873Z,2.50
2022-08-09T22:58:41.959Z,2.20
2022-08-09T23:01:11.594Z,2.30
2022-08-09T23:04:03.399Z,2.60
2022-08-09T23:06:56.166Z,2.10
2022-08-09T23:09:26.746Z,2.50
2022-08-09T23:11:56.155Z,2.40
2022-08-09T23:14:41.877Z,2.50
2022-08-09T23:17:11.851Z,3.10
2022-08-09T23:20:06.365Z,2.70
2022-08-09T23:22:29.919Z,2.80
2022-08-09T23:24:58.709Z,2.90
2022-08-09T23:27:28.115Z,3.00
2022-08-09T23:29:56.990Z,3.00
2022-08-09T23:32:25.894Z,2.80
2022-08-09T23:34:54.778Z,3.30
2022-08-09T23:37:25.621Z,3.20
2022-08-09T23:39:54.618Z,3.30
2022-08-09T23:42:23.394Z,3.10
2022-08-09T23:44:52.401Z,3.10
2022-08-09T23:47:21.231Z,3.70
2022-08-09T23:49:50.080Z,3.20
2022-08-09T23:52:19.003Z,3.40
2022-08-09T23:54:53.208Z,3.30
2022-08-09T23:57:22.491Z,3.20
